To NAV CANADA Home Page Login to a new session Search on AWWS site Disclaimer Vers la page française équivalente Tips FAQ What's new on the site To the Forecasts and Observations / NOTAM section To "File a Flight Plan" website Publications and other links Update of the User's profile FIC Telephone Numbers My Weather Data Folder Route Weather Data Regional Weather Data Local Weather Data To the Forecasts and Observations / NOTAM section
Request Generated 03/19/2019 at 23:46:30 UTC . Weather information available at that time is displayed.

METAR/TAF

WABUSH/NL    (show WxCam)

METAR CYWK 192300Z 21003KT 15SM FEW170 SCT270 M14/M21 A2996 RMK AC2CI2 SLP205=
METAR CYWK 192200Z 26009KT 15SM SCT180 BKN270 M11/M22 A2996 RMK AC3CI3 SLP210=
METAR CYWK 192100Z 24010G16KT 15SM FEW180 SCT270 M10/M21 A2997 RMK AC1CI3 SLP212=

TAF CYWK 191938Z 1920/2008 24010KT P6SM SCT280
BECMG 1922/1924 23010KT BKN040
FM200300 23012KT P6SM SCT080
BECMG 2006/2008 23015G25KT BKN020
RMK NXT FCST BY 200200Z=
Your time UTC time
Weather data provided by Environment Canada and NAV CANADA